createdAt,value
2023-04-30T04:08:52.218Z,100.00
2023-04-30T04:11:20.790Z,100.00
2023-04-30T04:13:48.635Z,100.00
2023-04-30T04:16:16.221Z,100.00
2023-04-30T04:18:44.343Z,100.00
2023-04-30T04:21:14.214Z,100.00
2023-04-30T04:23:41.492Z,100.00
2023-04-30T04:26:10.471Z,100.00
2023-04-30T04:28:39.029Z,100.00
2023-04-30T04:31:07.841Z,100.00
2023-04-30T04:33:37.060Z,100.00
2023-04-30T04:36:04.579Z,100.00
2023-04-30T04:38:31.887Z,100.00
2023-04-30T04:41:00.499Z,100.00
2023-04-30T04:43:27.810Z,100.00
2023-04-30T04:45:55.210Z,100.00
2023-04-30T04:48:22.562Z,100.00
2023-04-30T04:50:49.915Z,100.00
2023-04-30T04:53:19.633Z,100.00
2023-04-30T04:55:48.286Z,100.00
2023-04-30T04:58:15.641Z,100.00
2023-04-30T05:00:44.431Z,100.00
2023-04-30T05:03:12.329Z,100.00
2023-04-30T05:05:40.712Z,100.00
2023-04-30T05:08:08.418Z,100.00
2023-04-30T05:10:36.466Z,100.00
2023-04-30T05:13:04.324Z,100.00
2023-04-30T05:15:31.790Z,100.00
2023-04-30T05:17:59.382Z,100.00
2023-04-30T05:20:26.941Z,100.00
2023-04-30T05:22:54.244Z,100.00
2023-04-30T05:25:21.963Z,100.00
2023-04-30T05:27:49.785Z,100.00
2023-04-30T05:30:17.280Z,100.00
2023-04-30T05:32:50.752Z,100.00
2023-04-30T05:35:19.330Z,100.00
2023-04-30T05:37:46.769Z,100.00
2023-04-30T05:40:14.358Z,100.00
2023-04-30T05:42:43.696Z,100.00
2023-04-30T05:45:12.377Z,100.00
2023-04-30T05:47:41.667Z,100.00
2023-04-30T05:50:10.180Z,100.00
2023-04-30T05:52:37.510Z,100.00
2023-04-30T05:55:05.654Z,100.00
2023-04-30T05:57:35.203Z,100.00
2023-04-30T06:00:03.549Z,100.00
2023-04-30T06:02:39.787Z,100.00
2023-04-30T06:05:10.435Z,100.00
2023-04-30T06:07:38.325Z,100.00
2023-04-30T06:10:07.561Z,100.00
2023-04-30T06:12:35.024Z,100.00
2023-04-30T06:15:02.531Z,100.00
2023-04-30T06:17:29.811Z,100.00
2023-04-30T06:19:58.940Z,100.00
2023-04-30T06:22:26.626Z,100.00
2023-04-30T06:24:54.183Z,100.00
2023-04-30T06:27:21.578Z,100.00
2023-04-30T06:29:48.928Z,100.00
2023-04-30T06:32:16.839Z,100.00
2023-04-30T06:34:44.234Z,100.00
2023-04-30T06:37:11.509Z,100.00
2023-04-30T06:39:39.344Z,100.00
2023-04-30T06:42:06.588Z,100.00
2023-04-30T06:44:34.565Z,100.00
2023-04-30T06:47:02.467Z,100.00
2023-04-30T06:49:29.803Z,100.00
2023-04-30T06:51:58.481Z,100.00
2023-04-30T06:54:27.195Z,100.00
2023-04-30T06:56:55.021Z,100.00
2023-04-30T06:59:22.548Z,100.00
2023-04-30T07:01:49.976Z,100.00
2023-04-30T07:04:17.685Z,100.00
2023-04-30T07:06:45.616Z,100.00
2023-04-30T07:09:15.644Z,100.00
2023-04-30T07:11:42.966Z,100.00
2023-04-30T07:14:10.180Z,100.00
2023-04-30T07:16:37.936Z,100.00
2023-04-30T07:19:05.666Z,100.00
2023-04-30T07:21:33.557Z,100.00
2023-04-30T07:24:00.867Z,100.00
2023-04-30T07:26:28.121Z,100.00
2023-04-30T07:28:55.485Z,100.00
2023-04-30T07:31:23.255Z,100.00
2023-04-30T07:33:51.283Z,100.00
2023-04-30T07:36:18.586Z,100.00
2023-04-30T07:38:46.172Z,100.00
2023-04-30T07:41:14.691Z,100.00
2023-04-30T07:43:42.500Z,100.00
2023-04-30T07:46:10.428Z,100.00
2023-04-30T07:48:37.923Z,100.00
2023-04-30T07:51:05.275Z,100.00
2023-04-30T07:53:32.572Z,100.00
2023-04-30T07:56:00.369Z,100.00
2023-04-30T07:58:28.118Z,100.00
2023-04-30T08:00:55.585Z,100.00
2023-04-30T08:03:23.409Z,100.00
2023-04-30T08:05:50.757Z,100.00
2023-04-30T08:08:18.145Z,100.00
2023-04-30T08:10:45.385Z,100.00
2023-04-30T08:13:13.075Z,100.00
2023-04-30T08:15:40.766Z,100.00
2023-04-30T08:18:08.250Z,100.00
2023-04-30T08:20:38.009Z,100.00
2023-04-30T08:23:06.863Z,100.00
2023-04-30T08:25:34.605Z,100.00
2023-04-30T08:28:02.137Z,100.00
2023-04-30T08:30:29.501Z,100.00
2023-04-30T08:32:57.834Z,100.00
2023-04-30T08:35:25.744Z,100.00
2023-04-30T08:37:54.068Z,100.00
2023-04-30T08:40:22.137Z,100.00
2023-04-30T08:43:12.952Z,100.00
2023-04-30T08:45:41.898Z,100.00
2023-04-30T08:48:15.668Z,100.00
2023-04-30T08:50:43.298Z,100.00
2023-04-30T08:53:11.613Z,100.00
2023-04-30T08:55:40.303Z,100.00
2023-04-30T09:00:39.898Z,100.00
2023-04-30T09:03:08.872Z,100.00
2023-04-30T09:05:38.380Z,100.00
2023-04-30T09:08:07.912Z,100.00
2023-04-30T09:10:35.847Z,100.00
2023-04-30T09:13:06.605Z,100.00
2023-04-30T09:15:35.245Z,100.00
2023-04-30T09:18:07.191Z,100.00
2023-04-30T09:20:35.717Z,100.00
2023-04-30T09:23:10.998Z,100.00
2023-04-30T09:25:41.158Z,100.00
2023-04-30T09:28:13.282Z,100.00
2023-04-30T09:30:42.148Z,100.00
2023-04-30T09:33:11.980Z,100.00
2023-04-30T09:35:44.079Z,100.00
2023-04-30T09:38:30.741Z,100.00
2023-04-30T09:41:01.959Z,100.00
2023-04-30T09:43:30.433Z,100.00
2023-04-30T09:45:59.972Z,100.00
2023-04-30T09:48:28.368Z,100.00
2023-04-30T09:50:56.978Z,100.00
2023-04-30T09:53:24.487Z,100.00
2023-04-30T09:55:52.614Z,100.00
2023-04-30T09:58:20.893Z,100.00
2023-04-30T10:00:51.007Z,100.00
2023-04-30T10:03:21.185Z,100.00
2023-04-30T10:05:49.062Z,100.00
2023-04-30T10:08:26.871Z,100.00
2023-04-30T10:11:05.883Z,100.00
2023-04-30T10:14:03.973Z,100.00
2023-04-30T10:16:46.196Z,100.00
2023-04-30T10:19:24.654Z,100.00
2023-04-30T10:21:52.815Z,100.00
2023-04-30T10:24:21.392Z,100.00
2023-04-30T10:26:49.404Z,100.00
2023-04-30T10:29:18.397Z,100.00
2023-04-30T10:31:48.623Z,100.00
2023-04-30T10:34:42.948Z,100.00
2023-04-30T10:37:34.508Z,100.00
2023-04-30T10:40:05.045Z,100.00
2023-04-30T10:42:36.009Z,100.00
2023-04-30T10:45:03.800Z,100.00
2023-04-30T10:47:32.373Z,100.00
2023-04-30T10:50:09.701Z,100.00
2023-04-30T10:52:39.124Z,100.00
2023-04-30T10:55:09.134Z,100.00
2023-04-30T10:57:48.325Z,100.00
2023-04-30T11:00:19.954Z,100.00
2023-04-30T11:02:48.808Z,100.00
2023-04-30T11:05:19.836Z,100.00
2023-04-30T11:07:59.383Z,100.00
2023-04-30T11:10:28.574Z,100.00
2023-04-30T11:12:56.153Z,100.00
2023-04-30T11:15:31.875Z,100.00
2023-04-30T11:17:59.865Z,100.00
2023-04-30T11:20:28.046Z,100.00
2023-04-30T11:23:19.711Z,100.00
2023-04-30T11:26:00.964Z,100.00
2023-04-30T11:28:29.612Z,100.00
2023-04-30T11:30:59.653Z,100.00
2023-04-30T11:33:30.321Z,100.00
2023-04-30T11:36:00.532Z,100.00
2023-04-30T11:38:36.751Z,100.00
2023-04-30T11:41:05.038Z,100.00
2023-04-30T11:43:35.063Z,100.00
2023-04-30T11:46:13.397Z,100.00
2023-04-30T11:48:42.421Z,100.00
2023-04-30T11:51:21.875Z,100.00
2023-04-30T11:53:52.516Z,100.00
2023-04-30T11:56:26.087Z,100.00
2023-04-30T11:58:55.770Z,100.00
2023-04-30T12:01:27.710Z,100.00
2023-04-30T12:03:58.106Z,100.00
2023-04-30T12:06:28.118Z,100.00
2023-04-30T12:09:03.979Z,100.00
2023-04-30T12:11:32.068Z,100.00
2023-04-30T12:14:05.039Z,100.00
2023-04-30T12:16:51.609Z,100.00
2023-04-30T12:19:21.969Z,100.00
2023-04-30T12:21:50.294Z,100.00
2023-04-30T12:24:19.770Z,100.00
2023-04-30T12:26:48.088Z,100.00
2023-04-30T12:29:18.105Z,100.00
2023-04-30T12:31:50.164Z,100.00
2023-04-30T12:34:18.542Z,100.00
2023-04-30T12:36:45.966Z,100.00
2023-04-30T12:39:17.718Z,100.00
2023-04-30T12:41:47.562Z,100.00
2023-04-30T12:44:23.694Z,100.00
2023-04-30T12:46:57.240Z,100.00
2023-04-30T12:49:34.555Z,100.00
2023-04-30T12:52:09.567Z,100.00
2023-04-30T12:54:38.229Z,100.00
2023-04-30T12:57:11.090Z,100.00
2023-04-30T12:59:39.745Z,100.00
2023-04-30T13:02:13.387Z,100.00
2023-04-30T13:04:42.555Z,100.00
2023-04-30T13:07:10.811Z,100.00
2023-04-30T13:09:38.355Z,100.00
2023-04-30T13:12:06.392Z,100.00
2023-04-30T13:14:34.592Z,100.00
2023-04-30T13:17:05.795Z,100.00
2023-04-30T13:19:34.755Z,100.00
2023-04-30T13:22:03.028Z,100.00
2023-04-30T13:24:31.367Z,100.00
2023-04-30T13:26:59.262Z,100.00
2023-04-30T13:29:27.328Z,100.00
2023-04-30T13:31:55.045Z,100.00
2023-04-30T13:34:23.779Z,100.00
2023-04-30T13:36:52.627Z,100.00
2023-04-30T13:39:20.526Z,100.00
2023-04-30T13:41:49.237Z,100.00
2023-04-30T13:44:17.530Z,100.00
2023-04-30T13:46:45.176Z,100.00
2023-04-30T13:49:12.916Z,100.00
2023-04-30T13:51:40.175Z,100.00
2023-04-30T13:54:07.536Z,100.00
2023-04-30T13:56:35.455Z,100.00
2023-04-30T13:59:03.054Z,100.00
2023-04-30T14:01:32.894Z,100.00
2023-04-30T14:04:02.008Z,99.82
2023-04-30T14:06:30.435Z,92.94
2023-04-30T14:08:57.785Z,89.50
2023-04-30T14:11:29.667Z,88.54
2023-04-30T14:13:57.353Z,90.80
2023-04-30T14:16:25.968Z,87.17
2023-04-30T14:18:53.744Z,84.89
2023-04-30T14:21:21.338Z,84.43
2023-04-30T14:23:49.656Z,83.48
2023-04-30T14:26:17.463Z,83.76
2023-04-30T14:28:45.390Z,86.86
2023-04-30T14:31:13.567Z,85.29
2023-04-30T14:33:41.842Z,87.88
2023-04-30T14:36:09.402Z,89.88
2023-04-30T14:38:37.571Z,90.16
2023-04-30T14:41:04.893Z,89.35
2023-04-30T14:43:32.687Z,90.81
2023-04-30T14:46:00.132Z,91.97
2023-04-30T14:48:27.704Z,93.70
2023-04-30T14:50:55.746Z,94.90
2023-04-30T14:53:23.407Z,96.78
2023-04-30T14:55:51.281Z,98.51
2023-04-30T14:58:20.033Z,100.00
2023-04-30T15:00:48.935Z,100.00
2023-04-30T15:03:16.846Z,100.00
2023-04-30T15:05:44.460Z,100.00
2023-04-30T15:08:12.126Z,100.00
2023-04-30T15:10:39.405Z,100.00
2023-04-30T15:13:06.849Z,100.00
2023-04-30T15:15:34.625Z,100.00
2023-04-30T15:18:03.975Z,99.14
2023-04-30T15:20:32.107Z,97.46
2023-04-30T15:23:00.042Z,97.62
2023-04-30T15:25:27.403Z,96.14
2023-04-30T15:27:55.240Z,96.50
2023-04-30T15:30:23.108Z,94.08
2023-04-30T15:32:50.949Z,95.46
2023-04-30T15:35:18.873Z,95.16
2023-04-30T15:37:46.651Z,97.65
2023-04-30T15:40:15.612Z,95.71
2023-04-30T15:42:43.580Z,92.18
2023-04-30T15:45:10.971Z,88.53
2023-04-30T15:47:39.134Z,79.74
2023-04-30T15:50:07.509Z,73.45
2023-04-30T15:52:38.211Z,72.39
2023-04-30T15:55:07.969Z,70.21
2023-04-30T15:57:35.311Z,67.98
2023-04-30T16:00:04.934Z,72.62
2023-04-30T16:02:39.419Z,81.72
2023-04-30T16:05:07.906Z,90.32
2023-04-30T16:07:38.158Z,94.14
2023-04-30T16:10:06.971Z,97.89
2023-04-30T16:12:34.272Z,93.00
2023-04-30T16:15:04.655Z,99.80
2023-04-30T16:17:33.080Z,100.00
2023-04-30T16:20:01.524Z,100.00
2023-04-30T16:22:30.251Z,100.00
2023-04-30T16:24:58.657Z,100.00
2023-04-30T16:27:26.018Z,100.00
2023-04-30T16:29:53.816Z,100.00
2023-04-30T16:32:21.571Z,100.00
2023-04-30T16:34:49.131Z,100.00
2023-04-30T16:37:16.885Z,100.00
2023-04-30T16:39:44.229Z,100.00
2023-04-30T16:42:12.284Z,100.00
2023-04-30T16:44:40.040Z,100.00
2023-04-30T16:47:08.877Z,100.00
2023-04-30T16:49:36.587Z,100.00
2023-04-30T16:52:03.861Z,100.00
2023-04-30T16:54:31.562Z,100.00
2023-04-30T16:56:59.107Z,100.00
2023-04-30T16:59:27.162Z,100.00
2023-04-30T17:01:56.384Z,100.00
2023-04-30T17:04:23.794Z,100.00
2023-04-30T17:06:51.700Z,100.00
2023-04-30T17:09:22.489Z,100.00
2023-04-30T17:11:49.824Z,100.00
2023-04-30T17:14:17.233Z,100.00
2023-04-30T17:16:44.991Z,100.00
2023-04-30T17:19:13.003Z,100.00
2023-04-30T17:21:40.309Z,100.00
2023-04-30T17:24:07.896Z,100.00
2023-04-30T17:26:36.191Z,100.00
2023-04-30T17:29:04.629Z,100.00
2023-04-30T17:31:32.431Z,100.00
2023-04-30T17:34:03.102Z,100.00
2023-04-30T17:36:30.441Z,100.00
2023-04-30T17:38:57.869Z,100.00
2023-04-30T17:41:26.180Z,100.00
2023-04-30T17:43:53.830Z,100.00
2023-04-30T17:46:21.102Z,100.00
2023-04-30T17:48:48.397Z,100.00
2023-04-30T17:51:16.187Z,100.00
2023-04-30T17:53:43.899Z,100.00
2023-04-30T17:58:40.293Z,100.00
2023-04-30T18:01:08.658Z,100.00
2023-04-30T18:03:36.482Z,100.00
2023-04-30T18:06:04.094Z,100.00
2023-04-30T18:08:32.869Z,100.00
2023-04-30T18:11:02.942Z,100.00
2023-04-30T18:13:31.459Z,100.00
2023-04-30T18:15:59.145Z,100.00
2023-04-30T18:18:26.549Z,100.00
2023-04-30T18:20:54.430Z,100.00
2023-04-30T18:23:22.817Z,100.00
2023-04-30T18:25:50.534Z,100.00
2023-04-30T18:28:18.715Z,100.00
2023-04-30T18:30:46.290Z,100.00
2023-04-30T18:33:13.747Z,100.00
2023-04-30T18:35:41.869Z,100.00
2023-04-30T18:38:09.238Z,100.00
2023-04-30T18:40:37.362Z,100.00
2023-04-30T18:43:05.347Z,100.00
2023-04-30T18:45:33.767Z,100.00
2023-04-30T18:48:01.527Z,100.00
2023-04-30T18:50:29.023Z,100.00
2023-04-30T18:52:56.656Z,100.00
2023-04-30T18:55:24.778Z,100.00
2023-04-30T18:57:52.411Z,100.00
2023-04-30T19:00:20.291Z,100.00
2023-04-30T19:02:48.261Z,100.00
2023-04-30T19:05:16.327Z,100.00
2023-04-30T19:07:44.632Z,100.00
2023-04-30T19:10:12.493Z,100.00
2023-04-30T19:12:40.465Z,100.00
2023-04-30T19:15:09.733Z,100.00
2023-04-30T19:17:38.375Z,100.00
2023-04-30T19:20:06.968Z,100.00
2023-04-30T19:22:35.947Z,100.00
2023-04-30T19:25:04.719Z,100.00
2023-04-30T19:27:32.344Z,100.00
2023-04-30T19:29:59.679Z,100.00
2023-04-30T19:32:27.301Z,100.00
2023-04-30T19:34:55.306Z,100.00
2023-04-30T19:37:25.063Z,100.00
2023-04-30T19:39:52.869Z,100.00
2023-04-30T19:42:20.509Z,100.00
2023-04-30T19:44:47.846Z,100.00
2023-04-30T19:47:15.600Z,100.00
2023-04-30T19:49:44.543Z,100.00
2023-04-30T19:52:12.393Z,100.00
2023-04-30T19:54:45.162Z,100.00
2023-04-30T19:57:12.381Z,100.00
2023-04-30T19:59:40.055Z,100.00
2023-04-30T20:02:08.332Z,100.00
2023-04-30T20:04:37.161Z,100.00
2023-04-30T20:07:04.961Z,100.00
2023-04-30T20:09:32.755Z,100.00
2023-04-30T20:12:03.644Z,100.00
2023-04-30T20:14:31.279Z,100.00
2023-04-30T20:16:59.170Z,100.00
2023-04-30T20:19:26.620Z,100.00
2023-04-30T20:21:54.585Z,100.00
2023-04-30T20:24:22.619Z,100.00
2023-04-30T20:26:50.643Z,100.00
2023-04-30T20:29:20.591Z,100.00
2023-04-30T20:31:48.020Z,100.00
2023-04-30T20:34:15.737Z,100.00
2023-04-30T20:36:43.602Z,100.00
2023-04-30T20:39:10.876Z,100.00
2023-04-30T20:41:39.344Z,100.00
2023-04-30T20:44:06.849Z,100.00
2023-04-30T20:46:36.202Z,100.00
2023-04-30T20:49:04.320Z,100.00
2023-04-30T20:51:32.342Z,100.00
2023-04-30T20:54:00.095Z,100.00
2023-04-30T20:56:27.407Z,100.00
2023-04-30T20:58:55.832Z,100.00
2023-04-30T21:01:23.197Z,100.00
2023-04-30T21:03:50.699Z,100.00
2023-04-30T21:06:18.415Z,100.00
2023-04-30T21:08:46.360Z,100.00
2023-04-30T21:11:14.230Z,100.00
2023-04-30T21:13:41.825Z,100.00
2023-04-30T21:16:09.333Z,100.00
2023-04-30T21:18:36.731Z,100.00
2023-04-30T21:21:05.006Z,100.00
2023-04-30T21:23:32.929Z,100.00
2023-04-30T21:26:00.237Z,100.00
2023-04-30T21:28:27.716Z,100.00
2023-04-30T21:30:55.761Z,100.00
2023-04-30T21:33:23.107Z,100.00
2023-04-30T21:35:50.431Z,100.00
2023-04-30T21:38:18.189Z,100.00
2023-04-30T21:40:45.563Z,100.00
2023-04-30T21:43:12.938Z,100.00
2023-04-30T21:45:43.181Z,100.00
2023-04-30T21:48:11.833Z,100.00
